Time;durP1;ratioP1;P1;durP2;ratioP2;P2;SDS_P1;SDS_P2;PMS_P1;PMS_P2;Temp;Humidity;BMP_temperature;BMP_pressure;BME280_temperature;BME280_humidity;BME280_pressure;Samples;Min_cycle;Max_cycle;Signal;HPM_P1;HPM_P2
2022/05/06 00:00:37;;;;;;;1.43;1.10;;;12.60;98.20;;;;;;5026405;28;20464;-76
2022/05/06 00:03:04;;;;;;;1.43;1.00;;;12.60;98.20;;;;;;5032975;28;20546;-74
2022/05/06 00:05:31;;;;;;;1.43;1.00;;;12.60;97.30;;;;;;5030377;28;20487;-75
2022/05/06 00:08:00;;;;;;;1.47;1.00;;;12.60;98.10;;;;;;5033037;28;20471;-76
2022/05/06 00:10:27;;;;;;;1.47;1.00;;;12.60;98.20;;;;;;5030103;28;21027;-76
2022/05/06 00:12:53;;;;;;;1.43;1.00;;;12.50;98.20;;;;;;5030501;28;20463;-75
2022/05/06 00:15:20;;;;;;;1.43;1.00;;;12.50;98.20;;;;;;5029861;28;20487;-75
2022/05/06 00:17:47;;;;;;;1.47;1.10;;;12.50;98.20;;;;;;5027258;28;20465;-75
2022/05/06 00:20:14;;;;;;;1.50;1.10;;;12.50;98.20;;;;;;5029028;28;20539;-75
2022/05/06 00:22:41;;;;;;;1.43;1.00;;;12.50;98.20;;;;;;5028781;28;20987;-75
2022/05/06 00:25:09;;;;;;;1.50;1.10;;;12.50;98.20;;;;;;5030230;28;20487;-76
2022/05/06 00:27:39;;;;;;;1.40;1.00;;;12.40;98.20;;;;;;5031147;28;20901;-75
2022/05/06 00:30:07;;;;;;;1.50;1.00;;;12.40;98.20;;;;;;5029377;28;20455;-76
2022/05/06 00:32:34;;;;;;;1.43;1.10;;;12.50;98.20;;;;;;5034983;28;20475;-76
2022/05/06 00:35:00;;;;;;;1.50;1.10;;;12.50;98.20;;;;;;5029394;28;20455;-75
2022/05/06 00:37:27;;;;;;;1.50;1.00;;;12.40;98.20;;;;;;5034291;28;20468;-76
2022/05/06 00:39:54;;;;;;;1.50;1.00;;;12.50;98.20;;;;;;5029857;28;20531;-76
2022/05/06 00:42:22;;;;;;;1.50;1.10;;;12.50;98.20;;;;;;5034483;28;20467;-77
2022/05/06 00:44:49;;;;;;;1.50;1.10;;;12.50;98.20;;;;;;5030168;28;20537;-77
2022/05/06 00:47:20;;;;;;;1.50;1.10;;;12.50;98.20;;;;;;5032135;28;20491;-76
2022/05/06 00:49:47;;;;;;;1.40;1.07;;;12.50;98.00;;;;;;5029622;28;20532;-75
2022/05/06 00:52:16;;;;;;;1.47;1.00;;;12.50;98.00;;;;;;5026019;28;20538;-76
2022/05/06 00:54:43;;;;;;;1.50;1.00;;;12.50;98.20;;;;;;5029763;28;20459;-76
2022/05/06 00:57:11;;;;;;;1.50;1.00;;;12.50;98.20;;;;;;5031381;28;21103;-76
2022/05/06 01:02:20;;;;;;;1.43;1.00;;;12.50;98.20;;;;;;5027444;28;20546;-76
2022/05/06 01:04:47;;;;;;;1.50;1.10;;;12.40;98.20;;;;;;5029629;28;20491;-75
2022/05/06 01:07:14;;;;;;;1.47;1.00;;;12.40;98.20;;;;;;5027337;28;20850;-77
2022/05/06 01:09:41;;;;;;;1.50;1.10;;;12.30;98.20;;;;;;5025647;28;20467;-76
2022/05/06 01:12:09;;;;;;;1.43;1.07;;;12.30;98.20;;;;;;5026023;28;20460;-77
2022/05/06 01:14:36;;;;;;;1.47;1.00;;;12.30;98.20;;;;;;5027853;28;20993;-76
2022/05/06 01:17:04;;;;;;;1.50;1.10;;;12.20;98.20;;;;;;5029296;28;20483;-75
2022/05/06 01:19:31;;;;;;;1.47;1.10;;;12.20;98.20;;;;;;5028587;28;20463;-76
2022/05/06 01:21:59;;;;;;;1.47;1.00;;;12.20;98.20;;;;;;5027403;28;20475;-77
2022/05/06 01:24:26;;;;;;;1.50;1.10;;;12.10;98.20;;;;;;5023633;28;20494;-76
2022/05/06 01:27:00;;;;;;;1.50;1.17;;;12.10;98.20;;;;;;5031129;28;20489;-76
2022/05/06 01:29:29;;;;;;;1.50;1.20;;;12.00;98.20;;;;;;5027264;28;20750;-77
2022/05/06 01:31:56;;;;;;;1.40;1.00;;;12.00;98.20;;;;;;5032022;28;20459;-75
2022/05/06 01:34:28;;;;;;;1.43;1.10;;;11.90;98.20;;;;;;5024739;28;20487;-76
2022/05/06 01:36:56;;;;;;;1.50;1.10;;;11.80;98.20;;;;;;5030383;28;20500;-76
2022/05/06 01:39:30;;;;;;;1.40;1.00;;;11.70;98.20;;;;;;5033796;28;20463;-76
2022/05/06 01:42:00;;;;;;;1.43;1.00;;;11.60;98.20;;;;;;5020372;28;20471;-76
2022/05/06 01:44:29;;;;;;;1.43;1.00;;;11.60;98.20;;;;;;5024577;28;20640;-76
2022/05/06 01:47:00;;;;;;;1.47;1.00;;;11.60;98.20;;;;;;5016652;28;21019;-75
2022/05/06 01:49:29;;;;;;;1.47;1.10;;;11.60;98.20;;;;;;5026331;28;20482;-75
2022/05/06 01:51:58;;;;;;;1.47;1.07;;;11.60;98.20;;;;;;5029301;28;20528;-76
2022/05/06 01:54:27;;;;;;;1.50;1.10;;;11.50;98.20;;;;;;5028425;28;20987;-76
2022/05/06 01:56:54;;;;;;;1.50;1.07;;;11.50;98.20;;;;;;5029947;28;20562;-75
2022/05/06 01:59:20;;;;;;;1.50;1.00;;;11.50;98.20;;;;;;5028290;28;20463;-77
2022/05/06 02:01:47;;;;;;;1.50;1.10;;;11.50;98.20;;;;;;5035484;28;20461;-75
2022/05/06 02:06:58;;;;;;;1.50;1.10;;;11.40;98.20;;;;;;5035809;28;20482;-76
2022/05/06 02:09:26;;;;;;;1.47;1.10;;;11.40;98.20;;;;;;5026566;28;20463;-75
2022/05/06 02:11:53;;;;;;;1.47;1.10;;;11.40;98.20;;;;;;5029307;28;20459;-75
2022/05/06 02:14:20;;;;;;;1.47;1.00;;;11.40;98.20;;;;;;5028564;28;20459;-77
2022/05/06 02:16:48;;;;;;;1.43;1.10;;;11.30;98.20;;;;;;5029862;28;20522;-75
2022/05/06 02:19:15;;;;;;;1.50;1.13;;;11.30;98.20;;;;;;5027060;28;20471;-77
2022/05/06 02:21:42;;;;;;;1.47;1.10;;;11.30;98.20;;;;;;5025882;28;20463;-75
2022/05/06 02:24:08;;;;;;;1.50;1.10;;;11.20;98.20;;;;;;5028352;28;20623;-76
2022/05/06 02:26:36;;;;;;;1.50;1.00;;;11.20;98.20;;;;;;5030649;28;20495;-77
2022/05/06 02:29:04;;;;;;;1.47;1.10;;;11.20;98.20;;;;;;5028695;28;20494;-77
2022/05/06 02:34:16;;;;;;;1.50;1.10;;;11.10;98.20;;;;;;5024797;28;20462;-76
2022/05/06 02:36:43;;;;;;;1.47;1.10;;;11.10;98.20;;;;;;5029739;28;20521;-77
2022/05/06 02:39:10;;;;;;;1.50;1.10;;;11.10;98.20;;;;;;5028958;28;20474;-76
2022/05/06 02:41:38;;;;;;;1.50;1.10;;;11.10;98.20;;;;;;5028185;28;20463;-76
2022/05/06 02:44:05;;;;;;;1.70;1.40;;;11.00;98.20;;;;;;5027390;28;20509;-77
2022/05/06 02:46:33;;;;;;;1.50;1.10;;;11.00;98.20;;;;;;5028186;28;20999;-76
2022/05/06 02:49:00;;;;;;;1.47;1.10;;;11.00;98.20;;;;;;5026541;28;20952;-77
2022/05/06 02:51:28;;;;;;;1.43;1.10;;;11.00;98.20;;;;;;5026769;28;20470;-77
2022/05/06 02:53:56;;;;;;;1.43;1.10;;;11.00;98.20;;;;;;5031472;28;20842;-77
2022/05/06 02:56:23;;;;;;;1.40;1.10;;;11.00;98.20;;;;;;5036390;28;20520;-77
2022/05/06 02:58:51;;;;;;;1.50;1.13;;;10.90;98.20;;;;;;5027700;28;20486;-77
2022/05/06 03:01:18;;;;;;;1.50;1.10;;;10.90;98.20;;;;;;5034080;28;20462;-77
2022/05/06 03:03:45;;;;;;;1.50;1.13;;;10.90;98.20;;;;;;5023880;28;20469;-77
2022/05/06 03:06:12;;;;;;;1.50;1.10;;;10.80;98.20;;;;;;5030303;28;20502;-76
2022/05/06 03:08:39;;;;;;;1.50;1.20;;;10.80;98.20;;;;;;5033059;28;20908;-77
2022/05/06 03:11:05;;;;;;;1.43;1.10;;;10.80;98.20;;;;;;5027505;28;20554;-78
2022/05/06 03:13:32;;;;;;;1.50;1.10;;;10.70;98.20;;;;;;5032281;28;20463;-76
2022/05/06 03:16:00;;;;;;;1.50;1.13;;;10.70;98.20;;;;;;5032513;28;20897;-76
2022/05/06 03:18:27;;;;;;;1.50;1.10;;;10.70;98.20;;;;;;5033057;28;20493;-75
2022/05/06 03:20:54;;;;;;;1.50;1.20;;;10.70;98.20;;;;;;5029381;28;20518;-76
2022/05/06 03:23:21;;;;;;;1.50;1.20;;;10.70;98.20;;;;;;5027132;28;21011;-76
2022/05/06 03:25:48;;;;;;;2.63;1.80;;;10.60;98.20;;;;;;5030093;28;20494;-76
2022/05/06 03:28:15;;;;;;;1.50;1.10;;;10.60;98.20;;;;;;5031543;28;20554;-76
2022/05/06 03:30:44;;;;;;;1.50;1.20;;;10.60;98.20;;;;;;5029272;28;20455;-75
2022/05/06 03:33:14;;;;;;;1.43;1.10;;;10.50;98.20;;;;;;5030882;28;20557;-76
2022/05/06 03:35:41;;;;;;;1.50;1.30;;;10.50;98.20;;;;;;5031083;28;20570;-76
2022/05/06 03:38:08;;;;;;;1.50;1.10;;;10.40;98.20;;;;;;5031387;28;20955;-75
2022/05/06 03:40:35;;;;;;;1.50;1.20;;;10.40;98.20;;;;;;5029224;28;20469;-74
2022/05/06 03:43:02;;;;;;;1.47;1.10;;;10.30;98.20;;;;;;5035770;28;20986;-76
2022/05/06 03:45:29;;;;;;;1.50;1.13;;;10.30;98.20;;;;;;5030099;28;20498;-75
2022/05/06 03:47:58;;;;;;;1.40;1.10;;;10.40;98.20;;;;;;5036245;28;20463;-76
2022/05/06 03:53:11;;;;;;;1.50;1.10;;;10.40;98.20;;;;;;5032803;28;20577;-76
2022/05/06 03:55:38;;;;;;;1.50;1.10;;;10.40;98.20;;;;;;5030297;28;20475;-76
2022/05/06 03:58:05;;;;;;;1.47;1.10;;;10.40;98.20;;;;;;5035228;28;20486;-75
2022/05/06 04:00:32;;;;;;;1.50;1.10;;;10.40;98.20;;;;;;5030488;28;20467;-76
2022/05/06 04:02:58;;;;;;;1.50;1.10;;;10.40;98.20;;;;;;5029091;28;20456;-75
2022/05/06 04:05:27;;;;;;;1.50;1.20;;;10.40;98.20;;;;;;5030358;28;20497;-76
2022/05/06 04:07:54;;;;;;;1.47;1.10;;;10.30;98.20;;;;;;5032540;28;20541;-75
2022/05/06 04:10:21;;;;;;;1.50;1.20;;;10.30;98.20;;;;;;5029231;28;21176;-75
2022/05/06 04:12:49;;;;;;;1.50;1.10;;;10.30;98.20;;;;;;5030143;28;20947;-75
2022/05/06 04:15:16;;;;;;;1.50;1.10;;;10.30;98.20;;;;;;5029801;28;20467;-76
2022/05/06 04:17:42;;;;;;;1.50;1.10;;;10.30;98.20;;;;;;5025435;28;21133;-76
2022/05/06 04:25:41;;;;;;;1.50;1.10;;;10.30;98.20;;;;;;5030316;28;20509;-74
2022/05/06 04:28:08;;;;;;;1.50;1.20;;;10.30;98.20;;;;;;5023711;28;20464;-74
2022/05/06 04:30:36;;;;;;;1.40;1.10;;;10.30;98.20;;;;;;5028692;28;20972;-75
2022/05/06 04:33:03;;;;;;;1.50;1.10;;;10.30;98.20;;;;;;5039330;28;20978;-75
2022/05/06 04:35:29;;;;;;;1.50;1.20;;;10.30;98.20;;;;;;5025470;28;20761;-75
2022/05/06 04:37:58;;;;;;;1.50;1.20;;;10.30;98.20;;;;;;5030255;28;20455;-74
2022/05/06 04:40:24;;;;;;;1.43;1.10;;;10.30;98.20;;;;;;5026189;28;20554;-75
2022/05/06 04:42:51;;;;;;;1.50;1.17;;;10.30;98.20;;;;;;5031007;28;20474;-75
2022/05/06 04:45:18;;;;;;;1.47;1.10;;;10.30;98.20;;;;;;5028048;28;20483;-74
2022/05/06 04:47:45;;;;;;;1.50;1.10;;;10.30;98.20;;;;;;5018294;28;20486;-75
2022/05/06 04:50:12;;;;;;;1.43;1.17;;;10.40;98.20;;;;;;5026448;28;20769;-75
2022/05/06 04:52:39;;;;;;;1.47;1.10;;;10.40;98.20;;;;;;5030352;28;20966;-76
2022/05/06 04:55:08;;;;;;;1.50;1.10;;;10.50;98.20;;;;;;5027436;28;20464;-75
2022/05/06 04:57:35;;;;;;;1.47;1.10;;;10.50;98.20;;;;;;5021515;28;20967;-75
2022/05/06 05:00:02;;;;;;;1.50;1.20;;;10.50;98.20;;;;;;5026662;28;20558;-76
2022/05/06 05:02:29;;;;;;;1.47;1.10;;;10.60;98.20;;;;;;5028722;28;20832;-77
2022/05/06 05:04:58;;;;;;;1.50;1.10;;;10.60;98.20;;;;;;5023029;28;20466;-77
2022/05/06 05:07:25;;;;;;;1.43;1.20;;;10.70;98.20;;;;;;5026723;28;20495;-76
2022/05/06 05:09:52;;;;;;;1.50;1.20;;;10.80;98.20;;;;;;5024633;28;20554;-76
2022/05/06 05:12:24;;;;;;;1.50;1.17;;;10.80;98.20;;;;;;5026562;28;20463;-75
2022/05/06 05:14:51;;;;;;;1.50;1.20;;;10.90;98.20;;;;;;5039212;22;20487;-75
2022/05/06 05:17:18;;;;;;;1.47;1.10;;;11.00;98.20;;;;;;5030332;28;20474;-76
2022/05/06 05:19:45;;;;;;;1.50;1.00;;;11.20;98.20;;;;;;5032444;28;20569;-76
2022/05/06 05:22:12;;;;;;;1.50;1.10;;;11.30;98.20;;;;;;5036956;28;20558;-77
2022/05/06 05:24:39;;;;;;;1.47;1.10;;;11.40;98.20;;;;;;5032925;28;20519;-76
2022/05/06 05:27:06;;;;;;;1.50;1.10;;;11.50;98.20;;;;;;5031737;28;20491;-76
2022/05/06 05:29:35;;;;;;;1.77;1.53;;;11.60;98.20;;;;;;5030942;28;20471;-76
2022/05/06 05:32:02;;;;;;;1.50;1.10;;;11.80;98.20;;;;;;5034190;28;20467;-77
2022/05/06 05:34:29;;;;;;;1.47;1.00;;;11.90;98.20;;;;;;5032119;28;20491;-77
2022/05/06 05:37:07;;;;;;;1.50;1.10;;;12.10;98.20;;;;;;5036723;28;20487;-77
2022/05/06 05:39:35;;;;;;;1.80;1.70;;;12.30;98.20;;;;;;5040482;28;20470;-77
2022/05/06 05:42:06;;;;;;;1.50;1.10;;;12.60;98.20;;;;;;5035879;28;20541;-75
2022/05/06 05:50:07;;;;;;;1.50;1.10;;;13.20;98.20;;;;;;5035727;28;21066;-77
2022/05/06 05:52:34;;;;;;;1.47;1.00;;;13.50;98.20;;;;;;5026089;28;20996;-77
2022/05/06 05:55:02;;;;;;;1.50;1.03;;;13.70;98.10;;;;;;5033120;28;20835;-77
2022/05/06 05:57:29;;;;;;;1.43;0.90;;;13.90;97.50;;;;;;5033248;28;20857;-77
2022/05/06 05:59:57;;;;;;;1.50;0.90;;;14.10;97.30;;;;;;5033661;28;20486;-77
2022/05/06 06:02:25;;;;;;;1.50;1.00;;;14.30;97.20;;;;;;5032587;28;20467;-77
2022/05/06 06:04:52;;;;;;;1.50;1.00;;;14.60;96.20;;;;;;5025229;28;20501;-77
2022/05/06 06:07:19;;;;;;;1.47;1.00;;;14.70;94.70;;;;;;5029055;28;20491;-76
2022/05/06 06:09:46;;;;;;;1.47;0.90;;;14.80;94.00;;;;;;5030071;28;20502;-78
2022/05/06 06:12:12;;;;;;;1.50;1.00;;;15.00;93.60;;;;;;5032698;28;20477;-78
2022/05/06 06:14:41;;;;;;;1.50;1.17;;;15.10;93.40;;;;;;5029127;28;20495;-77
2022/05/06 06:17:10;;;;;;;1.50;1.00;;;15.10;93.40;;;;;;5039692;28;21151;-76
2022/05/06 06:19:39;;;;;;;1.47;1.00;;;15.20;93.50;;;;;;5041569;28;20485;-76
2022/05/06 06:22:06;;;;;;;1.50;1.00;;;15.40;93.10;;;;;;5038884;28;20983;-75
2022/05/06 06:24:33;;;;;;;1.47;1.00;;;15.60;92.50;;;;;;5028301;28;20573;-75
2022/05/06 06:26:59;;;;;;;1.60;1.47;;;15.80;91.70;;;;;;5031441;28;20487;-77
2022/05/06 06:29:29;;;;;;;1.47;1.00;;;16.10;91.40;;;;;;5033552;28;20460;-77
2022/05/06 06:31:56;;;;;;;1.50;1.00;;;16.30;90.70;;;;;;5035116;28;20529;-76
2022/05/06 06:34:24;;;;;;;1.50;0.90;;;16.50;90.00;;;;;;5032656;28;20478;-75
2022/05/06 06:37:00;;;;;;;1.50;0.93;;;16.70;89.10;;;;;;5036438;28;20477;-77
2022/05/06 06:39:28;;;;;;;1.47;1.00;;;16.70;87.70;;;;;;5031832;28;20467;-76
2022/05/06 06:41:54;;;;;;;1.47;0.90;;;16.60;89.30;;;;;;5034370;28;20458;-77
2022/05/06 06:44:21;;;;;;;1.50;1.00;;;16.80;89.20;;;;;;5030189;28;20491;-75
2022/05/06 06:46:48;;;;;;;1.50;1.10;;;17.00;88.30;;;;;;5030451;28;20489;-76
2022/05/06 06:49:15;;;;;;;1.50;1.10;;;17.10;88.10;;;;;;5028162;28;20567;-76
2022/05/06 06:51:43;;;;;;;1.47;1.00;;;17.30;88.10;;;;;;5029772;28;20463;-76
2022/05/06 06:54:10;;;;;;;1.50;0.90;;;17.50;87.20;;;;;;5028051;28;20466;-76
2022/05/06 06:56:37;;;;;;;1.50;0.90;;;17.80;87.00;;;;;;5030467;28;20502;-75
2022/05/06 06:59:05;;;;;;;1.50;1.00;;;18.10;85.80;;;;;;5028369;28;20462;-76
2022/05/06 07:01:33;;;;;;;1.50;1.00;;;18.20;85.40;;;;;;5028126;28;20561;-76
2022/05/06 07:04:01;;;;;;;1.50;0.90;;;18.40;84.60;;;;;;5027847;28;20553;-76
2022/05/06 07:11:57;;;;;;;1.43;0.90;;;18.70;84.30;;;;;;5024397;28;20450;-76
2022/05/06 07:14:25;;;;;;;1.50;0.90;;;18.80;83.20;;;;;;5028035;28;20482;-76
2022/05/06 07:16:53;;;;;;;1.50;0.90;;;18.80;83.50;;;;;;5025757;28;20497;-75
2022/05/06 07:19:21;;;;;;;1.50;0.90;;;19.00;83.30;;;;;;5034889;28;20515;-75
2022/05/06 07:21:49;;;;;;;1.50;0.90;;;19.10;82.30;;;;;;5027396;28;20520;-76
2022/05/06 07:24:18;;;;;;;1.40;0.90;;;19.30;83.00;;;;;;5029838;28;21056;-76
2022/05/06 07:26:45;;;;;;;1.47;0.90;;;19.50;82.90;;;;;;5027925;28;20881;-76
2022/05/06 07:29:11;;;;;;;1.50;0.90;;;19.60;82.10;;;;;;5027618;28;20467;-76
2022/05/06 07:31:38;;;;;;;1.50;1.10;;;19.70;82.70;;;;;;5033481;28;20472;-76
2022/05/06 07:34:05;;;;;;;1.50;0.90;;;19.70;82.50;;;;;;5027220;28;20466;-76
2022/05/06 07:36:32;;;;;;;1.43;0.90;;;19.80;81.60;;;;;;5027839;28;21042;-76
2022/05/06 07:38:59;;;;;;;1.40;0.90;;;19.90;82.90;;;;;;5026955;28;20459;-76
2022/05/06 07:41:27;;;;;;;1.50;0.90;;;20.00;81.80;;;;;;5031335;28;20458;-76
2022/05/06 07:43:54;;;;;;;1.43;0.90;;;20.20;80.80;;;;;;5026887;28;20470;-76
2022/05/06 07:46:23;;;;;;;1.50;0.90;;;20.30;81.00;;;;;;5028931;28;20490;-77
2022/05/06 07:48:50;;;;;;;1.43;0.90;;;20.40;81.10;;;;;;5026219;28;20471;-75
2022/05/06 07:51:16;;;;;;;1.40;0.90;;;20.50;80.00;;;;;;5027153;28;20470;-76
2022/05/06 07:53:43;;;;;;;1.43;0.90;;;20.60;80.10;;;;;;5029070;28;20490;-76
2022/05/06 07:56:11;;;;;;;1.50;0.93;;;20.70;78.90;;;;;;5026656;28;20493;-77
2022/05/06 07:58:39;;;;;;;1.47;0.90;;;20.70;79.60;;;;;;5029841;28;20469;-77
2022/05/06 08:01:06;;;;;;;1.50;1.00;;;20.80;79.00;;;;;;5023436;28;20467;-76
2022/05/06 08:06:17;;;;;;;1.50;0.90;;;21.00;79.10;;;;;;5026819;28;20482;-75
2022/05/06 08:08:44;;;;;;;1.50;1.10;;;21.20;78.90;;;;;;5026838;28;20467;-76
2022/05/06 08:11:11;;;;;;;1.43;0.90;;;21.20;77.00;;;;;;5028234;28;20500;-76
2022/05/06 08:13:39;;;;;;;1.50;0.90;;;21.30;77.30;;;;;;5029736;28;20455;-75
2022/05/06 08:16:06;;;;;;;1.50;0.90;;;21.50;78.10;;;;;;5017771;28;20530;-75
2022/05/06 08:18:32;;;;;;;1.50;0.90;;;21.60;77.90;;;;;;5039551;28;20463;-76
2022/05/06 08:20:59;;;;;;;1.47;0.90;;;21.80;77.60;;;;;;5017365;28;20463;-75
2022/05/06 08:23:26;;;;;;;1.43;0.87;;;22.00;77.70;;;;;;5039937;28;20940;-75
2022/05/06 08:25:53;;;;;;;1.47;0.90;;;22.20;76.40;;;;;;5016133;28;21873;-75
2022/05/06 08:28:21;;;;;;;1.47;0.90;;;22.30;76.10;;;;;;5039156;28;20498;-74
2022/05/06 08:30:49;;;;;;;1.47;0.87;;;22.50;76.60;;;;;;5025679;28;20468;-76
2022/05/06 08:33:17;;;;;;;2.73;2.53;;;22.60;75.70;;;;;;5028321;28;20467;-77
2022/05/06 08:35:44;;;;;;;1.47;0.90;;;22.70;74.40;;;;;;5025943;28;20529;-76
2022/05/06 08:38:14;;;;;;;1.50;0.80;;;22.80;75.10;;;;;;5028175;28;21021;-76
2022/05/06 08:40:41;;;;;;;1.50;0.90;;;23.00;76.10;;;;;;5025666;28;20467;-76
2022/05/06 08:43:08;;;;;;;1.70;1.43;;;23.10;73.70;;;;;;5028174;28;21406;-75
2022/05/06 08:51:11;;;;;;;1.43;0.80;;;23.40;74.70;;;;;;5020380;28;20458;-76
2022/05/06 08:53:39;;;;;;;1.60;1.40;;;23.50;73.20;;;;;;5024261;28;20855;-75
2022/05/06 08:56:06;;;;;;;1.40;0.87;;;23.60;74.80;;;;;;5025822;28;20574;-76
2022/05/06 08:58:37;;;;;;;1.50;0.80;;;23.80;73.10;;;;;;5026542;28;20455;-76
2022/05/06 09:01:07;;;;;;;1.50;0.90;;;24.00;73.00;;;;;;5029266;28;21070;-76
2022/05/06 09:03:38;;;;;;;1.40;0.90;;;24.30;71.90;;;;;;5021079;28;20483;-75
2022/05/06 09:06:05;;;;;;;1.50;1.20;;;24.50;70.90;;;;;;5024575;28;21226;-77
2022/05/06 09:08:37;;;;;;;1.47;0.90;;;24.70;70.00;;;;;;5025579;28;20493;-76
2022/05/06 09:11:07;;;;;;;1.50;0.90;;;24.60;70.30;;;;;;5024895;28;20478;-76
2022/05/06 09:13:35;;;;;;;1.50;0.90;;;24.70;70.10;;;;;;5028047;28;20562;-77
2022/05/06 09:19:19;;;;;;;1.40;0.80;;;24.90;69.90;;;;;;5020725;28;20449;-75
2022/05/06 09:22:06;;;;;;;1.50;0.90;;;25.10;67.10;;;;;;5028229;28;20473;-75
2022/05/06 09:24:34;;;;;;;1.43;0.90;;;25.30;68.50;;;;;;5024739;28;20483;-75
2022/05/06 09:27:02;;;;;;;1.43;0.80;;;25.40;67.20;;;;;;5027553;28;20560;-76
2022/05/06 09:29:31;;;;;;;1.43;0.80;;;25.60;66.50;;;;;;5019519;28;20474;-75
2022/05/06 09:32:13;;;;;;;1.43;0.90;;;25.80;64.80;;;;;;5027996;28;20674;-75
2022/05/06 09:34:41;;;;;;;1.47;0.80;;;25.80;63.80;;;;;;5019646;28;20487;-75
2022/05/06 09:37:08;;;;;;;1.50;0.90;;;25.90;63.50;;;;;;5026344;28;20459;-76
2022/05/06 09:39:38;;;;;;;1.50;0.80;;;25.90;63.20;;;;;;5025418;28;20803;-76
2022/05/06 09:42:07;;;;;;;1.40;0.80;;;26.10;63.30;;;;;;5026150;28;20547;-76
2022/05/06 09:44:34;;;;;;;1.50;0.80;;;26.30;63.60;;;;;;5019688;28;20487;-76
2022/05/06 09:47:11;;;;;;;1.50;0.90;;;26.40;62.10;;;;;;5024589;28;20483;-76
2022/05/06 09:49:41;;;;;;;1.47;0.80;;;26.60;63.00;;;;;;5024414;28;20597;-75
2022/05/06 09:52:15;;;;;;;1.43;0.90;;;26.70;61.70;;;;;;5023350;28;20466;-76
2022/05/06 09:54:44;;;;;;;1.50;0.90;;;26.70;64.30;;;;;;5022834;28;20478;-75
2022/05/06 09:57:12;;;;;;;1.50;1.10;;;26.90;62.80;;;;;;5027270;28;20542;-76
2022/05/06 09:59:39;;;;;;;1.40;0.87;;;27.00;62.40;;;;;;5023540;28;21566;-76
2022/05/06 10:02:07;;;;;;;1.47;0.90;;;27.10;62.00;;;;;;5027317;28;20459;-76
2022/05/06 10:04:34;;;;;;;1.43;0.80;;;27.20;63.30;;;;;;5022810;28;20486;-76
2022/05/06 10:07:05;;;;;;;1.50;0.80;;;27.30;64.30;;;;;;5024423;28;20580;-75
2022/05/06 10:09:36;;;;;;;1.43;0.90;;;27.40;63.20;;;;;;5024903;28;20560;-76
2022/05/06 10:12:06;;;;;;;1.43;0.80;;;27.40;64.00;;;;;;5027661;28;20463;-76
2022/05/06 10:14:35;;;;;;;1.47;0.83;;;27.50;62.10;;;;;;5023710;28;20500;-76
2022/05/06 10:17:02;;;;;;;1.47;0.80;;;27.50;62.40;;;;;;5020996;28;20546;-76
2022/05/06 10:19:46;;;;;;;1.43;0.80;;;27.40;63.00;;;;;;5022716;28;20474;-75
2022/05/06 10:22:14;;;;;;;1.47;0.80;;;27.20;61.50;;;;;;5022694;28;20462;-76
2022/05/06 10:24:43;;;;;;;1.47;0.80;;;27.10;63.20;;;;;;5023925;28;20591;-76
2022/05/06 10:32:25;;;;;;;1.43;0.80;;;26.90;62.60;;;;;;5025540;28;20490;-76
2022/05/06 10:33:15;;;;;;;1.47;0.90;;;27.20;63.20;;;;;;5023223;28;20461;-76
2022/05/06 10:35:44;;;;;;;1.50;1.00;;;27.50;61.50;;;;;;5026439;28;20820;-76
2022/05/06 10:38:24;;;;;;;1.40;0.80;;;27.70;62.60;;;;;;5028810;28;20485;-75
2022/05/06 10:41:02;;;;;;;1.60;1.23;;;27.70;60.80;;;;;;5021218;28;20458;-77
2022/05/06 10:43:55;;;;;;;1.50;0.90;;;27.60;61.60;;;;;;5023802;28;20502;-76
2022/05/06 10:46:37;;;;;;;1.60;1.00;;;27.60;62.20;;;;;;5028340;28;20840;-76
2022/05/06 10:49:41;;;;;;;1.47;0.80;;;27.70;61.20;;;;;;5018233;28;20478;-76
2022/05/06 10:52:42;;;;;;;1.40;0.90;;;27.70;61.20;;;;;;5018696;28;20892;-76
2022/05/06 10:55:12;;;;;;;1.50;0.90;;;27.90;61.60;;;;;;5025839;28;20482;-76
2022/05/06 10:57:54;;;;;;;1.40;0.90;;;28.00;59.60;;;;;;5026841;28;20466;-76
2022/05/06 11:00:22;;;;;;;1.40;0.80;;;28.10;58.10;;;;;;5024022;28;20469;-77
2022/05/06 11:02:50;;;;;;;1.50;0.80;;;28.10;59.50;;;;;;5024997;28;20463;-76
2022/05/06 11:05:18;;;;;;;1.40;0.80;;;28.10;59.20;;;;;;5023079;28;20486;-76
2022/05/06 11:07:46;;;;;;;1.50;0.80;;;28.30;59.10;;;;;;5025161;28;21017;-76
2022/05/06 11:10:16;;;;;;;1.50;0.80;;;28.60;60.60;;;;;;5023537;28;20479;-76
2022/05/06 11:12:44;;;;;;;1.47;0.80;;;28.60;59.20;;;;;;5020953;28;20558;-76
2022/05/06 11:15:13;;;;;;;1.70;1.10;;;28.50;58.90;;;;;;5045774;22;20768;-77
2022/05/06 11:17:41;;;;;;;1.40;0.80;;;28.20;58.90;;;;;;5002031;28;20491;-77
2022/05/06 11:20:16;;;;;;;1.47;0.80;;;27.70;60.00;;;;;;5026059;28;20548;-77
2022/05/06 11:22:54;;;;;;;1.47;0.90;;;27.10;61.10;;;;;;5027122;28;20783;-77
2022/05/06 11:25:23;;;;;;;1.50;1.00;;;26.50;61.00;;;;;;5026851;28;20482;-77
2022/05/06 11:27:51;;;;;;;1.40;0.80;;;26.00;62.00;;;;;;5015736;28;20646;-77
2022/05/06 11:30:19;;;;;;;1.83;1.63;;;25.50;62.60;;;;;;5026671;28;20466;-77
2022/05/06 11:32:52;;;;;;;1.50;0.90;;;25.50;63.70;;;;;;5018838;28;21129;-77
2022/05/06 11:35:32;;;;;;;1.50;1.10;;;25.80;62.60;;;;;;5022803;28;20883;-77
2022/05/06 11:38:00;;;;;;;1.43;0.80;;;26.10;63.30;;;;;;5021448;28;20669;-77
2022/05/06 11:40:36;;;;;;;1.47;0.80;;;26.30;61.90;;;;;;5021889;28;20466;-77
2022/05/06 11:43:08;;;;;;;1.43;0.90;;;26.70;62.70;;;;;;5022584;28;20477;-76
2022/05/06 11:48:23;;;;;;;1.43;0.80;;;27.30;62.00;;;;;;5022570;28;20481;-77
2022/05/06 11:50:57;;;;;;;1.43;0.80;;;27.70;60.90;;;;;;5012594;28;20897;-77
2022/05/06 11:53:27;;;;;;;1.47;0.80;;;28.00;60.00;;;;;;5026514;28;20657;-76
2022/05/06 11:55:56;;;;;;;1.50;0.80;;;28.10;57.60;;;;;;5024921;28;20486;-77
2022/05/06 11:58:25;;;;;;;1.43;0.80;;;28.40;56.90;;;;;;5027094;28;20848;-76
2022/05/06 12:00:53;;;;;;;1.40;0.80;;;28.70;57.70;;;;;;5014545;28;20467;-77
2022/05/06 12:03:20;;;;;;;1.50;1.07;;;28.80;56.60;;;;;;5028487;28;20467;-77
2022/05/06 12:06:01;;;;;;;1.43;0.90;;;28.90;58.00;;;;;;5024884;28;20493;-77
2022/05/06 12:08:30;;;;;;;1.97;1.30;;;28.80;59.20;;;;;;5024726;28;20516;-76
2022/05/06 12:11:04;;;;;;;1.40;0.80;;;28.70;60.00;;;;;;5013109;28;20498;-77
2022/05/06 12:13:33;;;;;;;1.47;0.90;;;28.70;59.60;;;;;;5010065;28;20825;-76
2022/05/06 12:16:05;;;;;;;1.47;0.80;;;28.90;59.40;;;;;;5020104;28;20593;-76
2022/05/06 12:18:32;;;;;;;1.43;0.80;;;29.00;59.60;;;;;;5025288;28;20466;-77
2022/05/06 12:20:59;;;;;;;1.43;0.80;;;28.90;58.80;;;;;;5024216;28;20494;-77
2022/05/06 12:23:29;;;;;;;1.40;0.80;;;28.90;56.50;;;;;;5025159;28;20521;-77
2022/05/06 12:25:57;;;;;;;1.40;0.80;;;28.90;57.30;;;;;;5022730;28;20596;-76
2022/05/06 12:28:27;;;;;;;1.40;0.80;;;29.00;56.80;;;;;;5020469;28;21048;-77
2022/05/06 12:30:57;;;;;;;1.43;0.80;;;29.20;57.60;;;;;;5023135;28;20512;-77
2022/05/06 12:33:36;;;;;;;1.47;0.80;;;29.30;57.30;;;;;;5022029;28;20463;-76
2022/05/06 12:36:04;;;;;;;1.47;0.90;;;29.40;56.00;;;;;;5022637;28;20486;-77
2022/05/06 12:38:47;;;;;;;1.50;0.90;;;29.40;56.10;;;;;;5024422;28;20470;-75
2022/05/06 12:41:18;;;;;;;1.50;0.90;;;29.40;55.10;;;;;;5015523;28;20473;-75
2022/05/06 12:43:46;;;;;;;1.50;0.90;;;29.40;58.40;;;;;;5022236;28;20498;-74
2022/05/06 12:46:25;;;;;;;1.40;0.80;;;29.50;55.70;;;;;;5022052;28;20490;-74
2022/05/06 12:51:37;;;;;;;1.40;0.80;;;29.70;57.70;;;;;;5019887;28;20609;-76
2022/05/06 12:54:04;;;;;;;1.43;0.80;;;29.70;56.70;;;;;;5021407;28;20471;-76
2022/05/06 12:56:31;;;;;;;1.40;0.80;;;29.70;58.20;;;;;;5022759;28;20490;-75
2022/05/06 12:58:59;;;;;;;1.43;0.80;;;29.70;56.00;;;;;;5023622;28;20465;-76
2022/05/06 13:01:26;;;;;;;1.47;0.90;;;29.80;56.00;;;;;;5015423;28;20835;-76
2022/05/06 13:03:53;;;;;;;1.70;1.20;;;29.80;56.20;;;;;;5024290;28;20485;-76
2022/05/06 13:06:19;;;;;;;1.47;0.80;;;29.80;56.70;;;;;;5017842;28;20945;-76
2022/05/06 13:08:46;;;;;;;1.40;0.80;;;29.90;55.20;;;;;;5022945;28;20509;-76
2022/05/06 13:11:13;;;;;;;1.40;0.83;;;29.70;58.90;;;;;;5014276;28;20478;-76
2022/05/06 13:13:40;;;;;;;1.47;0.90;;;29.90;58.20;;;;;;5021472;28;20471;-76
2022/05/06 13:16:09;;;;;;;1.47;0.80;;;30.00;56.20;;;;;;5021801;28;20581;-76
2022/05/06 13:18:36;;;;;;;1.50;0.90;;;29.60;56.20;;;;;;5022726;28;20490;-75
2022/05/06 13:21:03;;;;;;;1.40;0.80;;;29.00;57.40;;;;;;5017651;28;20466;-75
2022/05/06 13:23:30;;;;;;;1.50;0.80;;;28.40;58.40;;;;;;5027590;28;20471;-75
2022/05/06 13:25:58;;;;;;;1.40;0.80;;;27.90;59.60;;;;;;5022427;28;20487;-76
2022/05/06 13:28:24;;;;;;;1.60;1.27;;;27.50;60.80;;;;;;5022810;28;20486;-76
2022/05/06 13:30:51;;;;;;;1.67;1.57;;;27.20;61.00;;;;;;5017536;28;21037;-75
2022/05/06 13:33:19;;;;;;;1.47;0.90;;;27.20;63.00;;;;;;5020385;28;20493;-76
2022/05/06 13:35:46;;;;;;;1.47;0.80;;;27.50;59.70;;;;;;5019029;28;20852;-75
2022/05/06 13:38:13;;;;;;;1.43;0.90;;;27.50;60.00;;;;;;5022209;28;20474;-76
2022/05/06 13:40:40;;;;;;;1.47;0.80;;;27.60;61.60;;;;;;5026787;28;20946;-75
2022/05/06 13:43:06;;;;;;;1.40;0.80;;;27.60;59.10;;;;;;5019675;28;20473;-76